• Join FlightAware (Why Join?)
  • Login
  • US Flag 
12:02AM EST


 

Airport Tracker/Info


-or-


 

Live Flight TrackerFlight Track Log ✈ TAM3042 ✈ 16-Jun-2013 ✈ SBNF / NVT - SBSP / CGH

Flight Track Log - Related Links

Times and Time Zones

All times are in EDT time to prevent confusion due to time zone crossing. See the TAM3042 flight status page for this flight to view local times or setup timezone preferences in your user account.

Time Position Orientation Groundspeed Altitude Reporting Facility
EDT Latitude Longitude Course Direction KTS MPH feet Rate Location/Type
07:43PM -26.6600 -48.5680 34° Northeast 323 372 14,600  Level FlightAware
07:43PM -26.6080 -48.5280 35° Northeast 324 373 16,800 2,040 Climbing FlightAware
07:44PM -26.5450 -48.4790 35° Northeast 334 384 17,900 720 Climbing FlightAware
07:45PM -26.5060 -48.4500 34° Northeast 334 384 17,900  Level FlightAware
07:46PM -26.4520 -48.4100 34° Northeast 334 384 17,900 3,780 Level FlightAware
07:46PM -26.3770 -48.3500 36° Northeast 367 422 23,500 4,980 Climbing FlightAware
07:47PM -26.3090 -48.2980 34° Northeast 378 435 24,900 1,680 Climbing FlightAware
07:48PM -26.2510 -48.2540 34° Northeast 396 456 25,900 1,200 Climbing FlightAware
07:49PM -26.1780 -48.1980 35° Northeast 420 483 26,600 720 Climbing FlightAware
07:49PM -26.1160 -48.1510 34° Northeast 418 481 27,000 300 Climbing FlightAware
07:50PM -26.0490 -48.0990 35° Northeast 421 484 27,000  Level FlightAware
07:51PM -25.9780 -48.0450 34° Northeast 415 478 27,000  Level FlightAware
07:51PM -25.9180 -47.9920 38° Northeast 421 484 27,000  Level FlightAware
07:52PM -25.8610 -47.9310 44° Northeast 422 486 27,000  Level FlightAware
07:53PM -25.8030 -47.8700 43° Northeast 421 484 27,000  Level FlightAware
07:53PM -25.7390 -47.8030 43° Northeast 422 486 27,000  Level FlightAware
07:54PM -25.6870 -47.7490 43° Northeast 422 486 27,000  Level FlightAware
07:55PM -25.6190 -47.6780 43° Northeast 424 488 27,000  Level FlightAware
07:56PM -25.5560 -47.6120 43° Northeast 423 487 27,000  Level FlightAware
07:56PM -25.5040 -47.5580 43° Northeast 425 489 27,000  Level FlightAware
07:58PM -25.3920 -47.4420 43° Northeast 428 493 27,000  Level FlightAware
07:59PM -25.2860 -47.3320 43° Northeast 435 501 27,000  Level FlightAware
08:00PM -25.2340 -47.2770 44° Northeast 435 501 27,000  Level FlightAware
08:00PM -25.1860 -47.2420 33° Northeast 423 487 27,000  Level FlightAware
08:01PM -25.1030 -47.2090 20° North 420 483 27,000  Level FlightAware
08:02PM -25.2430 -47.2870 207° Southwest 435 501 27,100  Climbing FlightAware
08:02PM -24.9310 -47.1400 23° Northeast 421 484 27,000 -540 Descending FlightAware
08:03PM -24.8470 -47.1050 21° North 422 486 26,400 -1,440 Descending FlightAware
08:04PM -24.7520 -47.0670 20° North 396 456 24,700 -1,740 Descending FlightAware
08:05PM -24.6850 -47.0410 19° North 376 433 23,700 -1,980 Descending FlightAware
08:05PM -24.6040 -47.0080 20° North 378 435 21,800 -2,280 Descending FlightAware
08:06PM -24.5350 -46.9800 20° North 373 429 20,300 -2,100 Descending FlightAware
08:07PM -24.4690 -46.9530 20° North 367 422 19,000 -1,320 Descending FlightAware
08:07PM -24.4090 -46.9200 27° Northeast 348 400 18,500 -720 Descending FlightAware
08:08PM -24.3370 -46.8720 31° Northeast 313 360 17,900 -840 Descending FlightAware
08:09PM -24.2950 -46.8390 36° Northeast 310 357 17,200 -900 Descending FlightAware
08:10PM -24.2440 -46.7980 36° Northeast 283 326 16,700 -780 Descending FlightAware
08:10PM -24.2010 -46.7650 35° Northeast 272 313 16,100 -1,020 Descending FlightAware
08:11PM -24.1630 -46.7360 35° Northeast 263 303 15,400 -1,140 Descending FlightAware
08:12PM -24.1180 -46.7020 35° Northeast 260 299 14,600 -960 Descending FlightAware
08:12PM -24.0830 -46.6750 35° Northeast 249 287 14,100 -1,200 Descending FlightAware
08:13PM -24.0430 -46.6450 34° Northeast 249 287 13,100 -1,380 Descending FlightAware
08:14PM -24.0000 -46.6110 36° Northeast 252 290 12,200 -1,200 Descending FlightAware
08:15PM -23.9570 -46.5790 34° Northeast 252 290 11,300 -1,260 Descending FlightAware
08:15PM -23.9180 -46.5490 35° Northeast 249 287 10,400 -1,500 Descending FlightAware
08:16PM -23.8620 -46.5580 352° North 229 264 9,100 -1,320 Descending FlightAware
08:16PM -23.8460 -46.5730 319° Northwest 224 258 8,900 -660 Descending FlightAware
08:17PM -23.8350 -46.5840 318° Northwest 232 267 8,700 -600 Descending FlightAware
08:17PM -23.8150 -46.6030 319° Northwest 233 268 8,500 -480 Descending FlightAware
08:18PM -23.7880 -46.6280 320° Northwest 234 269 8,300 -540 Descending FlightAware
08:18PM -23.7650 -46.6510 318° Northwest 235 270 8,000 -660 Descending FlightAware
08:19PM -23.7390 -46.6700 326° Northwest 242 278 7,700 -720 Descending FlightAware
08:19PM -23.7160 -46.6850 329° Northwest 248 285 7,400 -840 Descending FlightAware
08:19PM -23.6880 -46.7020 331° Northwest 247 284 7,000 -480 Descending FlightAware
08:20PM -23.6600 -46.7210 328° Northwest 247 284 7,000  Level FlightAware
08:20PM -23.6330 -46.7380 330° Northwest 246 283 7,000  Level FlightAware
08:21PM -23.6170 -46.7490 328° Northwest 237 273 7,000 -960 Level FlightAware
08:21PM -23.5930 -46.7650 329° Northwest 228 262 6,300 -1,680 Descending FlightAware
08:22PM -23.5680 -46.7820 328° Northwest 232 267 5,500 -1,020 Descending FlightAware
08:22PM -23.5450 -46.7980 327° Northwest 198 228 5,400 -360 Descending FlightAware
08:23PM -23.5240 -46.8090 334° Northwest 180 207 5,200 -360 Descending FlightAware
08:23PM -23.5070 -46.7960 35° Northeast 193 222 5,100 -180 Descending FlightAware
08:23PM -23.5020 -46.7820 69° East 204 235 5,100 -300 Level FlightAware
08:24PM -23.5040 -46.7510 94° East 207 238 4,900 -300 Descending FlightAware
08:24PM -23.5100 -46.7360 114° Southeast 217 250 4,900 -480 Level FlightAware
08:24PM -23.5210 -46.7280 146° Southeast 220 253 4,700 -1,200 Descending FlightAware
08:25PM -23.5470 -46.7120 151° Southeast 201 231 4,100 -1,080 Descending FlightAware
08:25PM -23.5660 -46.6990 148° Southeast 168 193 3,700 -900 Descending FlightAware
08:26PM -23.5830 -46.6870 147° Southeast 149 171 3,300 -780 Descending FlightAware
08:26PM -23.5990 -46.6760 148° Southeast 137 158 3,000 -720 Descending FlightAware
08:26PM -23.6120 -46.6670 148° Southeast 133 153 2,700 -600 Descending FlightAware
08:27PM -23.6220 -46.6600 147° Southeast 133 153 2,500 -240 Descending FlightAware
08:27PM -23.6160 -46.6470 63° Northeast 134 154 2,500  Level FlightAware
08:29PM -23.6290 -46.6560 212° Southwest 127 146 -1,800 Descending FlightAware
08:29PM -23.6280 -46.6570 318° Northwest 127 146  Level FlightAware
08:30PM -23.6270 -46.6420 86° East 127 146  Level FlightAware
08:33PM -23.6267 -46.6554 271° West  Level Estimated
08:34PM -23.6267 -46.6554 114° Southeast  Level Estimated
08:35PM -23.6267 -46.6554 114° Southeast  Level Estimated
08:36PM -23.6267 -46.6554 114° Southeast  Level Estimated
08:37PM -23.6267 -46.6554 114° Southeast  Level Estimated
08:38PM -23.6267 -46.6554 114° Southeast  Level Estimated
08:39PM -23.6267 -46.6554 114° Southeast  Level Estimated
08:40PM -23.6267 -46.6554 114° Southeast  Level Estimated